Spencerville, MD (20868)

9:21 PM EDT on March 27, 2015 (GMT -0400)
Hampshire Greens | | Change Station
CLOSE
Current Station
Personal Weather Station
Location: Silver Spring, MD
Elevation: 472 ft
Nearby Weather Stations

Elev 472 ft 39.13 °N, 77.00 °W | Updated 15 seconds ago

Overcast
Overcast
42.1 °F
Feels Like 36 °F
N
10.1
Wind Variable Wind from WNW
Gusts 13.0 mph

Today
High -- | Low -- °F
--% Chance of Precip.
Yesterday
High -- | Low -- °F
Precip. -- in
7:00 AM 7:26 PM
First Quarter, 57% visible
Pressure 29.81 in
Visibility 10.0 miles
Clouds Overcast 6500 ft
Windchill 36 °F
Dew Point 26 °F
Humidity 52%
Rainfall 0.68 in
Snow Depth Not available.
UV 0 out of 12
Pollen 3.80 out of 12
Air Quality Not available.
Flu Activity Not available.
METAR KCGS 280105Z AUTO 35004KT 10SM OVC065 07/M02 A2981 RMK AO1

More Conditions Fewer Conditions

Pressure 29.81 in
Visibility 10.0 miles
Clouds Overcast 6500 ft
Windchill 36 °F
Dew Point 26 °F
Humidity 52%
Rainfall 0.68 in
Snow Depth Not available.
UV 0 out of 12
Pollen 3.80 out of 12
Air Quality Not available.
Flu Activity Not available.
METAR KCGS 280105Z AUTO 35004KT 10SM OVC065 07/M02 A2981 RMK AO1

More Conditions Fewer Conditions

10-Day Weather Forecast

Almanac

Astronomy

Mar. 27, 2015 Rise Set
Actual Time
Civil Twilight
Nautical Twilight
Astronomical Twilight
Moon
Length of Visible Light
Length of Day
Tomorrow will be .
, % of the Moon is Illuminated

Today's Extremes

State Highs State Lows

Community

WunderPhotos

Upload Photos

1,808,906 photos uploaded!

WunderBlogs® & News

Nearby

Air Quality

  Air Quality AQ Index Pollutant
Not available.

Snow Depth

Station Depth Elevation

Earthquake Activity

City Distance Mag. Time & Date
Minimum magnitude displayed is 2.5.

Coastal Water Temperatures

Place Temperature

Stations

Nearby Weather Stations

Station Location Temp. Windchill Dew Point Humidity Wind Precip. Elev Updated Type